Kesley, Iowa
Current Conditions -  °F | °C
As of 5:35 PM on Friday 19 Dec 2014 (Local Time) from KIFA Reporting Station
Overcast Overcast  
Wind Chill: 22°   Ceiling: 2100
Heat Index: 30°   Visibility: 7mi
Dew Point: 27°   Wind: 8mph
Humidity: 89%   Direction: 140°SE
Pressure: 30.21"   Gusts: NA
Location:  42.66°N, 92.91°W
Report Text: KIFA 192335Z AUTO 14007KT 7SM SCT011 OVC021 M01/M03 A3021 RMK AO2 T10121028
Loading
Personal Weather Stations






























Interactive Weather Map New forecast layout! Learn more

10-Day Weather Forecast

Advertisements
Track Severe Weather on mobile